sensor_id;sensor_type;location;lat;lon;timestamp;temperature;humidity
25300;DHT22;13241;51.208;4.432;2023-06-10T00:02:23;23.30;99.90
25300;DHT22;13241;51.208;4.432;2023-06-10T00:04:50;23.20;99.90
25300;DHT22;13241;51.208;4.432;2023-06-10T00:07:18;23.30;99.90
25300;DHT22;13241;51.208;4.432;2023-06-10T00:09:45;23.30;99.90
25300;DHT22;13241;51.208;4.432;2023-06-10T00:12:12;23.30;99.90
25300;DHT22;13241;51.208;4.432;2023-06-10T00:14:40;23.40;99.90
25300;DHT22;13241;51.208;4.432;2023-06-10T00:17:08;23.30;99.90
25300;DHT22;13241;51.208;4.432;2023-06-10T00:19:36;23.20;99.90
25300;DHT22;13241;51.208;4.432;2023-06-10T00:22:04;23.20;99.90
25300;DHT22;13241;51.208;4.432;2023-06-10T00:24:31;23.20;99.90
25300;DHT22;13241;51.208;4.432;2023-06-10T00:26:58;23.20;99.90
25300;DHT22;13241;51.208;4.432;2023-06-10T00:29:25;23.20;99.90
25300;DHT22;13241;51.208;4.432;2023-06-10T00:31:52;23.10;99.90
25300;DHT22;13241;51.208;4.432;2023-06-10T00:34:24;23.10;99.90
25300;DHT22;13241;51.208;4.432;2023-06-10T00:36:51;23.00;99.90
25300;DHT22;13241;51.208;4.432;2023-06-10T00:39:18;23.10;99.90
25300;DHT22;13241;51.208;4.432;2023-06-10T00:41:45;23.00;99.90
25300;DHT22;13241;51.208;4.432;2023-06-10T00:44:12;23.00;99.90
25300;DHT22;13241;51.208;4.432;2023-06-10T00:46:39;22.90;99.90
25300;DHT22;13241;51.208;4.432;2023-06-10T00:49:06;22.90;99.90
25300;DHT22;13241;51.208;4.432;2023-06-10T00:51:36;22.80;99.90
25300;DHT22;13241;51.208;4.432;2023-06-10T00:54:04;22.90;99.90
25300;DHT22;13241;51.208;4.432;2023-06-10T00:56:31;22.80;99.90
25300;DHT22;13241;51.208;4.432;2023-06-10T00:59:01;22.70;99.90
25300;DHT22;13241;51.208;4.432;2023-06-10T01:01:28;22.80;99.90
25300;DHT22;13241;51.208;4.432;2023-06-10T01:03:56;22.70;99.90
25300;DHT22;13241;51.208;4.432;2023-06-10T01:09:13;22.70;99.90
25300;DHT22;13241;51.208;4.432;2023-06-10T01:11:47;22.70;99.90
25300;DHT22;13241;51.208;4.432;2023-06-10T01:14:17;22.70;99.90
25300;DHT22;13241;51.208;4.432;2023-06-10T01:16:44;22.70;99.90
25300;DHT22;13241;51.208;4.432;2023-06-10T01:19:12;22.70;99.90
25300;DHT22;13241;51.208;4.432;2023-06-10T01:21:44;22.50;99.90
25300;DHT22;13241;51.208;4.432;2023-06-10T01:24:18;22.40;99.90
25300;DHT22;13241;51.208;4.432;2023-06-10T01:26:48;22.60;99.90
25300;DHT22;13241;51.208;4.432;2023-06-10T01:29:19;22.40;99.90
25300;DHT22;13241;51.208;4.432;2023-06-10T01:32:08;22.50;99.90
25300;DHT22;13241;51.208;4.432;2023-06-10T01:34:39;22.50;99.90
25300;DHT22;13241;51.208;4.432;2023-06-10T01:37:14;22.40;99.90
25300;DHT22;13241;51.208;4.432;2023-06-10T01:39:43;22.40;99.90
25300;DHT22;13241;51.208;4.432;2023-06-10T01:42:10;22.40;99.90
25300;DHT22;13241;51.208;4.432;2023-06-10T01:44:39;22.40;99.90
25300;DHT22;13241;51.208;4.432;2023-06-10T01:47:08;22.30;99.90
25300;DHT22;13241;51.208;4.432;2023-06-10T01:49:35;22.30;99.90
25300;DHT22;13241;51.208;4.432;2023-06-10T01:52:03;22.30;99.90
25300;DHT22;13241;51.208;4.432;2023-06-10T01:54:32;22.20;99.90
25300;DHT22;13241;51.208;4.432;2023-06-10T01:57:01;22.20;99.90
25300;DHT22;13241;51.208;4.432;2023-06-10T01:59:28;22.20;99.90
25300;DHT22;13241;51.208;4.432;2023-06-10T02:01:55;22.10;99.90
25300;DHT22;13241;51.208;4.432;2023-06-10T02:04:22;22.10;99.90
25300;DHT22;13241;51.208;4.432;2023-06-10T02:06:49;21.90;99.90
25300;DHT22;13241;51.208;4.432;2023-06-10T02:09:17;22.10;99.90
25300;DHT22;13241;51.208;4.432;2023-06-10T02:11:45;22.10;99.90
25300;DHT22;13241;51.208;4.432;2023-06-10T02:14:12;22.00;99.90
25300;DHT22;13241;51.208;4.432;2023-06-10T02:16:39;21.90;99.90
25300;DHT22;13241;51.208;4.432;2023-06-10T02:19:06;21.90;99.90
25300;DHT22;13241;51.208;4.432;2023-06-10T02:21:33;21.80;99.90
25300;DHT22;13241;51.208;4.432;2023-06-10T02:24:03;21.90;99.90
25300;DHT22;13241;51.208;4.432;2023-06-10T02:26:30;21.80;99.90
25300;DHT22;13241;51.208;4.432;2023-06-10T02:28:59;21.80;99.90
25300;DHT22;13241;51.208;4.432;2023-06-10T02:31:27;21.80;99.90
25300;DHT22;13241;51.208;4.432;2023-06-10T02:33:55;21.80;99.90
25300;DHT22;13241;51.208;4.432;2023-06-10T02:36:23;21.60;99.90
25300;DHT22;13241;51.208;4.432;2023-06-10T02:38:51;21.70;99.90
25300;DHT22;13241;51.208;4.432;2023-06-10T02:41:18;21.60;99.90
25300;DHT22;13241;51.208;4.432;2023-06-10T02:43:46;21.70;99.90
25300;DHT22;13241;51.208;4.432;2023-06-10T02:46:13;21.60;99.90
25300;DHT22;13241;51.208;4.432;2023-06-10T02:48:43;21.60;99.90
25300;DHT22;13241;51.208;4.432;2023-06-10T02:51:18;21.50;99.90
25300;DHT22;13241;51.208;4.432;2023-06-10T02:53:48;21.50;99.90
25300;DHT22;13241;51.208;4.432;2023-06-10T02:56:16;21.50;99.90
25300;DHT22;13241;51.208;4.432;2023-06-10T02:58:43;21.60;99.90
25300;DHT22;13241;51.208;4.432;2023-06-10T03:01:13;21.70;99.90
25300;DHT22;13241;51.208;4.432;2023-06-10T03:03:51;21.60;99.90
25300;DHT22;13241;51.208;4.432;2023-06-10T03:06:19;21.50;99.90
25300;DHT22;13241;51.208;4.432;2023-06-10T03:08:46;21.40;99.90
25300;DHT22;13241;51.208;4.432;2023-06-10T03:11:16;21.40;99.90
25300;DHT22;13241;51.208;4.432;2023-06-10T03:13:43;21.30;99.90
25300;DHT22;13241;51.208;4.432;2023-06-10T03:16:13;21.30;99.90
25300;DHT22;13241;51.208;4.432;2023-06-10T03:18:41;21.10;99.90
25300;DHT22;13241;51.208;4.432;2023-06-10T03:21:08;21.20;99.90
25300;DHT22;13241;51.208;4.432;2023-06-10T03:23:36;21.20;99.90
25300;DHT22;13241;51.208;4.432;2023-06-10T03:26:03;21.30;99.90
25300;DHT22;13241;51.208;4.432;2023-06-10T03:28:33;21.20;99.90
25300;DHT22;13241;51.208;4.432;2023-06-10T03:31:00;21.30;99.90
25300;DHT22;13241;51.208;4.432;2023-06-10T03:33:29;21.10;99.90
25300;DHT22;13241;51.208;4.432;2023-06-10T03:35:56;21.10;99.90
25300;DHT22;13241;51.208;4.432;2023-06-10T03:38:24;21.00;99.90
25300;DHT22;13241;51.208;4.432;2023-06-10T03:40:51;20.90;99.90
25300;DHT22;13241;51.208;4.432;2023-06-10T03:43:18;21.20;99.90
25300;DHT22;13241;51.208;4.432;2023-06-10T03:45:45;21.10;99.90
25300;DHT22;13241;51.208;4.432;2023-06-10T03:48:12;21.20;99.90
25300;DHT22;13241;51.208;4.432;2023-06-10T03:50:46;21.10;99.90
25300;DHT22;13241;51.208;4.432;2023-06-10T03:53:14;21.10;99.90
25300;DHT22;13241;51.208;4.432;2023-06-10T03:55:42;21.10;99.90
25300;DHT22;13241;51.208;4.432;2023-06-10T03:58:10;21.00;99.90
25300;DHT22;13241;51.208;4.432;2023-06-10T04:00:39;21.10;99.90
25300;DHT22;13241;51.208;4.432;2023-06-10T04:03:09;21.00;99.90
25300;DHT22;13241;51.208;4.432;2023-06-10T04:05:41;21.00;99.90
25300;DHT22;13241;51.208;4.432;2023-06-10T04:08:08;21.00;99.90
25300;DHT22;13241;51.208;4.432;2023-06-10T04:10:35;21.10;99.90
25300;DHT22;13241;51.208;4.432;2023-06-10T04:13:02;21.00;99.90
25300;DHT22;13241;51.208;4.432;2023-06-10T04:15:35;20.80;99.90
25300;DHT22;13241;51.208;4.432;2023-06-10T04:18:07;21.00;99.90
25300;DHT22;13241;51.208;4.432;2023-06-10T04:20:34;21.00;99.90
25300;DHT22;13241;51.208;4.432;2023-06-10T04:23:01;21.00;99.90
25300;DHT22;13241;51.208;4.432;2023-06-10T04:25:29;21.00;99.90
25300;DHT22;13241;51.208;4.432;2023-06-10T04:27:56;21.00;99.90
25300;DHT22;13241;51.208;4.432;2023-06-10T04:30:24;21.00;99.90
25300;DHT22;13241;51.208;4.432;2023-06-10T04:32:51;21.00;99.90
25300;DHT22;13241;51.208;4.432;2023-06-10T04:35:19;21.10;99.90
25300;DHT22;13241;51.208;4.432;2023-06-10T04:37:47;21.10;99.90
25300;DHT22;13241;51.208;4.432;2023-06-10T04:40:15;21.00;99.90
25300;DHT22;13241;51.208;4.432;2023-06-10T04:42:42;21.20;99.90
25300;DHT22;13241;51.208;4.432;2023-06-10T04:45:10;21.20;99.90
25300;DHT22;13241;51.208;4.432;2023-06-10T04:47:37;21.30;99.90
25300;DHT22;13241;51.208;4.432;2023-06-10T04:50:06;21.10;99.90
25300;DHT22;13241;51.208;4.432;2023-06-10T04:52:32;21.30;99.90
25300;DHT22;13241;51.208;4.432;2023-06-10T04:55:00;21.40;99.90
25300;DHT22;13241;51.208;4.432;2023-06-10T04:57:27;21.50;99.90
25300;DHT22;13241;51.208;4.432;2023-06-10T04:59:54;21.50;99.90
25300;DHT22;13241;51.208;4.432;2023-06-10T05:02:21;21.60;99.90
25300;DHT22;13241;51.208;4.432;2023-06-10T05:04:48;21.80;99.90
25300;DHT22;13241;51.208;4.432;2023-06-10T05:07:15;21.80;99.90
25300;DHT22;13241;51.208;4.432;2023-06-10T05:09:42;21.90;99.90
25300;DHT22;13241;51.208;4.432;2023-06-10T05:12:09;22.00;99.90
25300;DHT22;13241;51.208;4.432;2023-06-10T05:14:36;22.00;99.90
25300;DHT22;13241;51.208;4.432;2023-06-10T05:17:03;21.90;99.90
25300;DHT22;13241;51.208;4.432;2023-06-10T05:19:32;21.90;99.90
25300;DHT22;13241;51.208;4.432;2023-06-10T05:21:59;22.00;99.90
25300;DHT22;13241;51.208;4.432;2023-06-10T05:24:26;22.10;99.90
25300;DHT22;13241;51.208;4.432;2023-06-10T05:26:53;22.00;99.90
25300;DHT22;13241;51.208;4.432;2023-06-10T05:29:20;21.90;99.90
25300;DHT22;13241;51.208;4.432;2023-06-10T05:31:47;22.00;99.90
25300;DHT22;13241;51.208;4.432;2023-06-10T05:34:14;22.10;99.90
25300;DHT22;13241;51.208;4.432;2023-06-10T05:36:41;22.20;99.90
25300;DHT22;13241;51.208;4.432;2023-06-10T05:39:09;22.20;99.90
25300;DHT22;13241;51.208;4.432;2023-06-10T05:41:36;22.30;99.90
25300;DHT22;13241;51.208;4.432;2023-06-10T05:44:03;22.20;99.90
25300;DHT22;13241;51.208;4.432;2023-06-10T05:46:31;22.30;99.90
25300;DHT22;13241;51.208;4.432;2023-06-10T05:48:58;22.40;99.90
25300;DHT22;13241;51.208;4.432;2023-06-10T05:51:25;22.40;99.90
25300;DHT22;13241;51.208;4.432;2023-06-10T05:53:52;22.50;99.90
25300;DHT22;13241;51.208;4.432;2023-06-10T05:56:19;22.60;99.90
25300;DHT22;13241;51.208;4.432;2023-06-10T05:58:47;22.70;99.90
25300;DHT22;13241;51.208;4.432;2023-06-10T06:01:14;22.70;99.90
25300;DHT22;13241;51.208;4.432;2023-06-10T06:03:41;22.80;99.90
25300;DHT22;13241;51.208;4.432;2023-06-10T06:06:08;23.00;99.90
25300;DHT22;13241;51.208;4.432;2023-06-10T06:08:35;23.10;99.90
25300;DHT22;13241;51.208;4.432;2023-06-10T06:11:01;23.40;99.90
25300;DHT22;13241;51.208;4.432;2023-06-10T06:13:28;23.50;99.90
25300;DHT22;13241;51.208;4.432;2023-06-10T06:15:55;23.40;99.90
25300;DHT22;13241;51.208;4.432;2023-06-10T06:18:22;23.50;99.90
25300;DHT22;13241;51.208;4.432;2023-06-10T06:20:49;23.30;99.90
25300;DHT22;13241;51.208;4.432;2023-06-10T06:23:16;23.50;99.90
25300;DHT22;13241;51.208;4.432;2023-06-10T06:25:43;23.70;99.90
25300;DHT22;13241;51.208;4.432;2023-06-10T06:28:10;23.80;99.90
25300;DHT22;13241;51.208;4.432;2023-06-10T06:30:38;23.90;99.90
25300;DHT22;13241;51.208;4.432;2023-06-10T06:33:05;24.10;99.90
25300;DHT22;13241;51.208;4.432;2023-06-10T06:35:33;24.10;99.90
25300;DHT22;13241;51.208;4.432;2023-06-10T06:38:00;24.30;99.90
25300;DHT22;13241;51.208;4.432;2023-06-10T06:40:29;24.40;99.90
25300;DHT22;13241;51.208;4.432;2023-06-10T06:42:56;24.40;99.90
25300;DHT22;13241;51.208;4.432;2023-06-10T06:45:36;24.50;99.90
25300;DHT22;13241;51.208;4.432;2023-06-10T06:48:04;24.70;99.90
25300;DHT22;13241;51.208;4.432;2023-06-10T06:50:32;24.70;99.90
25300;DHT22;13241;51.208;4.432;2023-06-10T06:52:59;24.80;99.90
25300;DHT22;13241;51.208;4.432;2023-06-10T06:55:25;24.90;99.90
25300;DHT22;13241;51.208;4.432;2023-06-10T06:57:53;25.10;99.90
25300;DHT22;13241;51.208;4.432;2023-06-10T07:00:20;25.20;99.90
25300;DHT22;13241;51.208;4.432;2023-06-10T07:02:48;25.30;99.90
25300;DHT22;13241;51.208;4.432;2023-06-10T07:05:15;25.40;99.90
25300;DHT22;13241;51.208;4.432;2023-06-10T07:07:43;25.40;99.90
25300;DHT22;13241;51.208;4.432;2023-06-10T07:10:10;25.60;99.90
25300;DHT22;13241;51.208;4.432;2023-06-10T07:12:38;25.60;99.90
25300;DHT22;13241;51.208;4.432;2023-06-10T07:15:05;25.60;99.90
25300;DHT22;13241;51.208;4.432;2023-06-10T07:17:32;25.70;99.90
25300;DHT22;13241;51.208;4.432;2023-06-10T07:20:01;25.70;99.90
25300;DHT22;13241;51.208;4.432;2023-06-10T07:22:29;25.80;99.90
25300;DHT22;13241;51.208;4.432;2023-06-10T07:24:57;25.90;99.90
25300;DHT22;13241;51.208;4.432;2023-06-10T07:27:24;26.00;99.90
25300;DHT22;13241;51.208;4.432;2023-06-10T07:29:51;26.10;99.90
25300;DHT22;13241;51.208;4.432;2023-06-10T07:32:19;26.20;99.90
25300;DHT22;13241;51.208;4.432;2023-06-10T07:34:50;26.40;99.90
25300;DHT22;13241;51.208;4.432;2023-06-10T07:37:17;26.50;99.90
25300;DHT22;13241;51.208;4.432;2023-06-10T07:39:44;26.80;99.90
25300;DHT22;13241;51.208;4.432;2023-06-10T07:42:11;26.90;99.90
25300;DHT22;13241;51.208;4.432;2023-06-10T07:44:38;27.10;99.90
25300;DHT22;13241;51.208;4.432;2023-06-10T07:47:05;27.20;99.90
25300;DHT22;13241;51.208;4.432;2023-06-10T07:49:32;27.30;99.90
25300;DHT22;13241;51.208;4.432;2023-06-10T07:51:59;27.20;99.90
25300;DHT22;13241;51.208;4.432;2023-06-10T07:54:26;27.20;99.90
25300;DHT22;13241;51.208;4.432;2023-06-10T07:56:56;27.50;99.90
25300;DHT22;13241;51.208;4.432;2023-06-10T07:59:23;27.70;99.90
25300;DHT22;13241;51.208;4.432;2023-06-10T08:01:51;27.70;99.90
25300;DHT22;13241;51.208;4.432;2023-06-10T08:04:18;27.80;99.90
25300;DHT22;13241;51.208;4.432;2023-06-10T08:06:46;27.70;99.90
25300;DHT22;13241;51.208;4.432;2023-06-10T08:09:13;27.80;99.90
25300;DHT22;13241;51.208;4.432;2023-06-10T08:11:40;27.80;99.90
25300;DHT22;13241;51.208;4.432;2023-06-10T08:14:07;28.00;99.90
25300;DHT22;13241;51.208;4.432;2023-06-10T08:16:34;28.20;99.90
25300;DHT22;13241;51.208;4.432;2023-06-10T08:19:02;28.00;99.90
25300;DHT22;13241;51.208;4.432;2023-06-10T08:21:30;28.00;99.90
25300;DHT22;13241;51.208;4.432;2023-06-10T08:23:58;28.10;99.90
25300;DHT22;13241;51.208;4.432;2023-06-10T08:26:25;28.30;99.90
25300;DHT22;13241;51.208;4.432;2023-06-10T08:28:52;28.50;99.90
25300;DHT22;13241;51.208;4.432;2023-06-10T08:31:19;28.40;99.90
25300;DHT22;13241;51.208;4.432;2023-06-10T08:33:46;28.50;99.90
25300;DHT22;13241;51.208;4.432;2023-06-10T08:36:12;28.70;99.90
25300;DHT22;13241;51.208;4.432;2023-06-10T08:38:40;28.80;99.90
25300;DHT22;13241;51.208;4.432;2023-06-10T08:41:08;28.70;99.90
25300;DHT22;13241;51.208;4.432;2023-06-10T08:43:44;28.80;99.90
25300;DHT22;13241;51.208;4.432;2023-06-10T08:46:13;28.80;99.90
25300;DHT22;13241;51.208;4.432;2023-06-10T08:48:43;28.90;99.90
25300;DHT22;13241;51.208;4.432;2023-06-10T08:51:11;29.10;99.90
25300;DHT22;13241;51.208;4.432;2023-06-10T08:53:52;29.30;99.90
25300;DHT22;13241;51.208;4.432;2023-06-10T08:56:22;29.40;99.90
25300;DHT22;13241;51.208;4.432;2023-06-10T08:58:52;29.50;99.90
25300;DHT22;13241;51.208;4.432;2023-06-10T09:01:20;29.70;99.90
25300;DHT22;13241;51.208;4.432;2023-06-10T09:03:48;29.80;99.90
25300;DHT22;13241;51.208;4.432;2023-06-10T09:06:15;30.00;99.90
25300;DHT22;13241;51.208;4.432;2023-06-10T09:08:43;30.00;99.90
25300;DHT22;13241;51.208;4.432;2023-06-10T09:11:10;29.80;99.90
25300;DHT22;13241;51.208;4.432;2023-06-10T09:13:38;29.80;99.90
25300;DHT22;13241;51.208;4.432;2023-06-10T09:16:05;30.00;99.90
25300;DHT22;13241;51.208;4.432;2023-06-10T09:18:32;29.90;99.90
25300;DHT22;13241;51.208;4.432;2023-06-10T09:21:02;29.90;99.90
25300;DHT22;13241;51.208;4.432;2023-06-10T09:23:29;30.10;99.90
25300;DHT22;13241;51.208;4.432;2023-06-10T09:25:57;30.20;99.90
25300;DHT22;13241;51.208;4.432;2023-06-10T09:28:27;30.50;99.90
25300;DHT22;13241;51.208;4.432;2023-06-10T09:31:04;30.70;99.90
25300;DHT22;13241;51.208;4.432;2023-06-10T09:33:38;30.40;99.90
25300;DHT22;13241;51.208;4.432;2023-06-10T09:36:06;30.20;99.90
25300;DHT22;13241;51.208;4.432;2023-06-10T09:38:34;30.30;99.90
25300;DHT22;13241;51.208;4.432;2023-06-10T09:41:03;30.30;99.90
25300;DHT22;13241;51.208;4.432;2023-06-10T09:43:39;30.50;99.90
25300;DHT22;13241;51.208;4.432;2023-06-10T09:46:08;30.50;99.90
25300;DHT22;13241;51.208;4.432;2023-06-10T09:48:51;30.50;98.40
25300;DHT22;13241;51.208;4.432;2023-06-10T09:51:18;30.50;98.00
25300;DHT22;13241;51.208;4.432;2023-06-10T09:53:51;30.60;97.50
25300;DHT22;13241;51.208;4.432;2023-06-10T09:56:19;30.70;97.40
25300;DHT22;13241;51.208;4.432;2023-06-10T09:58:47;30.80;97.40
25300;DHT22;13241;51.208;4.432;2023-06-10T10:01:15;31.00;97.30
25300;DHT22;13241;51.208;4.432;2023-06-10T10:03:50;31.10;96.50
25300;DHT22;13241;51.208;4.432;2023-06-10T10:06:18;30.90;96.20
25300;DHT22;13241;51.208;4.432;2023-06-10T10:08:47;30.90;95.40
25300;DHT22;13241;51.208;4.432;2023-06-10T10:11:20;31.10;95.20
25300;DHT22;13241;51.208;4.432;2023-06-10T10:13:51;31.10;95.60
25300;DHT22;13241;51.208;4.432;2023-06-10T10:16:43;31.20;94.80
25300;DHT22;13241;51.208;4.432;2023-06-10T10:19:29;31.20;94.00
25300;DHT22;13241;51.208;4.432;2023-06-10T10:22:19;31.00;94.30
25300;DHT22;13241;51.208;4.432;2023-06-10T10:24:59;31.10;94.60
25300;DHT22;13241;51.208;4.432;2023-06-10T10:27:30;31.30;94.20
25300;DHT22;13241;51.208;4.432;2023-06-10T10:30:01;31.60;94.00
25300;DHT22;13241;51.208;4.432;2023-06-10T10:32:39;31.60;93.70
25300;DHT22;13241;51.208;4.432;2023-06-10T10:35:17;31.50;93.10
25300;DHT22;13241;51.208;4.432;2023-06-10T10:37:46;31.70;92.80
25300;DHT22;13241;51.208;4.432;2023-06-10T10:40:13;31.70;92.00
25300;DHT22;13241;51.208;4.432;2023-06-10T10:42:41;31.60;91.70
25300;DHT22;13241;51.208;4.432;2023-06-10T10:45:09;31.50;91.80
25300;DHT22;13241;51.208;4.432;2023-06-10T10:47:37;31.60;91.70
25300;DHT22;13241;51.208;4.432;2023-06-10T10:50:16;31.70;91.30
25300;DHT22;13241;51.208;4.432;2023-06-10T10:55:21;31.50;90.90
25300;DHT22;13241;51.208;4.432;2023-06-10T10:57:55;31.70;91.00
25300;DHT22;13241;51.208;4.432;2023-06-10T11:00:33;31.90;90.70
25300;DHT22;13241;51.208;4.432;2023-06-10T11:05:49;32.00;87.40
25300;DHT22;13241;51.208;4.432;2023-06-10T11:10:59;32.00;86.90
25300;DHT22;13241;51.208;4.432;2023-06-10T11:13:27;32.00;86.70
25300;DHT22;13241;51.208;4.432;2023-06-10T11:15:57;32.20;87.30
25300;DHT22;13241;51.208;4.432;2023-06-10T11:18:38;32.40;83.30
25300;DHT22;13241;51.208;4.432;2023-06-10T11:21:06;32.20;82.30
25300;DHT22;13241;51.208;4.432;2023-06-10T11:23:37;32.20;81.80
25300;DHT22;13241;51.208;4.432;2023-06-10T11:29:00;32.60;80.20
25300;DHT22;13241;51.208;4.432;2023-06-10T11:31:38;32.70;79.20
25300;DHT22;13241;51.208;4.432;2023-06-10T11:34:06;32.70;78.00
25300;DHT22;13241;51.208;4.432;2023-06-10T11:36:36;32.30;77.90
25300;DHT22;13241;51.208;4.432;2023-06-10T11:39:04;32.20;78.30
25300;DHT22;13241;51.208;4.432;2023-06-10T11:41:33;32.40;79.50
25300;DHT22;13241;51.208;4.432;2023-06-10T11:44:07;32.50;79.30
25300;DHT22;13241;51.208;4.432;2023-06-10T11:46:34;32.40;78.40
25300;DHT22;13241;51.208;4.432;2023-06-10T11:49:02;32.40;79.20
25300;DHT22;13241;51.208;4.432;2023-06-10T11:51:33;32.30;80.10
25300;DHT22;13241;51.208;4.432;2023-06-10T11:54:00;32.30;79.60
25300;DHT22;13241;51.208;4.432;2023-06-10T11:56:29;32.20;79.80
25300;DHT22;13241;51.208;4.432;2023-06-10T11:59:00;32.20;80.60
25300;DHT22;13241;51.208;4.432;2023-06-10T12:01:35;32.30;79.40
25300;DHT22;13241;51.208;4.432;2023-06-10T12:04:09;32.40;79.20
25300;DHT22;13241;51.208;4.432;2023-06-10T12:06:49;32.40;79.40
25300;DHT22;13241;51.208;4.432;2023-06-10T12:12:00;32.70;77.90
25300;DHT22;13241;51.208;4.432;2023-06-10T12:14:57;32.60;76.80
25300;DHT22;13241;51.208;4.432;2023-06-10T12:20:06;32.40;77.30
25300;DHT22;13241;51.208;4.432;2023-06-10T12:22:42;32.50;78.00
25300;DHT22;13241;51.208;4.432;2023-06-10T12:25:10;32.60;76.90
25300;DHT22;13241;51.208;4.432;2023-06-10T12:27:39;32.70;77.70
25300;DHT22;13241;51.208;4.432;2023-06-10T12:30:07;32.90;77.40
25300;DHT22;13241;51.208;4.432;2023-06-10T12:32:45;33.10;77.40
25300;DHT22;13241;51.208;4.432;2023-06-10T12:35:17;32.90;76.70
25300;DHT22;13241;51.208;4.432;2023-06-10T12:38:02;32.80;76.40
25300;DHT22;13241;51.208;4.432;2023-06-10T12:40:31;32.70;74.90
25300;DHT22;13241;51.208;4.432;2023-06-10T12:42:59;32.60;75.10
25300;DHT22;13241;51.208;4.432;2023-06-10T12:50:41;32.90;76.60
25300;DHT22;13241;51.208;4.432;2023-06-10T12:53:09;32.80;76.80
25300;DHT22;13241;51.208;4.432;2023-06-10T12:55:36;32.80;77.00
25300;DHT22;13241;51.208;4.432;2023-06-10T12:58:04;32.80;76.40
25300;DHT22;13241;51.208;4.432;2023-06-10T13:00:31;33.10;76.50
25300;DHT22;13241;51.208;4.432;2023-06-10T13:03:00;33.30;75.30
25300;DHT22;13241;51.208;4.432;2023-06-10T13:05:29;33.10;73.00
25300;DHT22;13241;51.208;4.432;2023-06-10T13:07:56;33.20;74.20
25300;DHT22;13241;51.208;4.432;2023-06-10T13:10:27;33.20;73.40
25300;DHT22;13241;51.208;4.432;2023-06-10T13:12:55;33.50;73.50
25300;DHT22;13241;51.208;4.432;2023-06-10T13:15:22;33.70;73.40
25300;DHT22;13241;51.208;4.432;2023-06-10T13:17:49;33.70;71.20
25300;DHT22;13241;51.208;4.432;2023-06-10T13:20:18;33.40;71.90
25300;DHT22;13241;51.208;4.432;2023-06-10T13:22:45;33.30;71.60
25300;DHT22;13241;51.208;4.432;2023-06-10T13:25:15;33.80;71.10
25300;DHT22;13241;51.208;4.432;2023-06-10T13:27:43;34.20;69.60
25300;DHT22;13241;51.208;4.432;2023-06-10T13:30:10;34.20;69.00
25300;DHT22;13241;51.208;4.432;2023-06-10T13:32:38;35.10;69.60
25300;DHT22;13241;51.208;4.432;2023-06-10T13:35:06;36.00;68.60
25300;DHT22;13241;51.208;4.432;2023-06-10T13:37:35;36.20;65.00
25300;DHT22;13241;51.208;4.432;2023-06-10T13:40:02;36.20;64.30
25300;DHT22;13241;51.208;4.432;2023-06-10T13:42:29;36.40;64.60
25300;DHT22;13241;51.208;4.432;2023-06-10T13:44:56;36.30;64.30
25300;DHT22;13241;51.208;4.432;2023-06-10T13:47:23;36.50;64.50
25300;DHT22;13241;51.208;4.432;2023-06-10T13:49:51;37.10;63.90
25300;DHT22;13241;51.208;4.432;2023-06-10T13:52:19;37.50;61.00
25300;DHT22;13241;51.208;4.432;2023-06-10T13:54:46;37.20;61.70
25300;DHT22;13241;51.208;4.432;2023-06-10T13:57:13;37.60;61.80
25300;DHT22;13241;51.208;4.432;2023-06-10T13:59:41;37.80;60.50
25300;DHT22;13241;51.208;4.432;2023-06-10T14:02:08;38.10;60.70
25300;DHT22;13241;51.208;4.432;2023-06-10T14:04:36;38.10;59.90
25300;DHT22;13241;51.208;4.432;2023-06-10T14:07:03;37.80;60.10
25300;DHT22;13241;51.208;4.432;2023-06-10T14:09:30;37.70;60.40
25300;DHT22;13241;51.208;4.432;2023-06-10T14:11:57;37.60;60.50
25300;DHT22;13241;51.208;4.432;2023-06-10T14:14:25;38.00;59.40
25300;DHT22;13241;51.208;4.432;2023-06-10T14:16:51;37.40;58.90
25300;DHT22;13241;51.208;4.432;2023-06-10T14:19:18;36.90;59.10
25300;DHT22;13241;51.208;4.432;2023-06-10T14:21:45;36.30;59.80
25300;DHT22;13241;51.208;4.432;2023-06-10T14:24:14;36.80;59.50
25300;DHT22;13241;51.208;4.432;2023-06-10T14:26:41;37.10;59.10
25300;DHT22;13241;51.208;4.432;2023-06-10T14:29:08;37.90;58.70
25300;DHT22;13241;51.208;4.432;2023-06-10T14:31:35;38.40;58.40
25300;DHT22;13241;51.208;4.432;2023-06-10T14:34:03;38.80;57.80
25300;DHT22;13241;51.208;4.432;2023-06-10T14:36:30;39.00;56.80
25300;DHT22;13241;51.208;4.432;2023-06-10T14:38:57;38.00;57.40
25300;DHT22;13241;51.208;4.432;2023-06-10T14:41:24;36.80;58.20
25300;DHT22;13241;51.208;4.432;2023-06-10T14:43:52;36.60;59.10
25300;DHT22;13241;51.208;4.432;2023-06-10T14:46:18;36.10;59.20
25300;DHT22;13241;51.208;4.432;2023-06-10T14:48:48;36.90;59.60
25300;DHT22;13241;51.208;4.432;2023-06-10T14:51:16;37.70;57.50
25300;DHT22;13241;51.208;4.432;2023-06-10T14:53:43;37.60;57.70
25300;DHT22;13241;51.208;4.432;2023-06-10T14:56:10;38.10;57.30
25300;DHT22;13241;51.208;4.432;2023-06-10T14:58:37;38.50;56.50
25300;DHT22;13241;51.208;4.432;2023-06-10T15:01:04;38.50;55.70
25300;DHT22;13241;51.208;4.432;2023-06-10T15:03:31;39.30;54.70
25300;DHT22;13241;51.208;4.432;2023-06-10T15:05:58;39.20;54.00
25300;DHT22;13241;51.208;4.432;2023-06-10T15:08:27;38.90;53.80
25300;DHT22;13241;51.208;4.432;2023-06-10T15:10:57;39.30;54.20
25300;DHT22;13241;51.208;4.432;2023-06-10T15:13:24;39.00;53.90
25300;DHT22;13241;51.208;4.432;2023-06-10T15:15:51;38.90;53.80
25300;DHT22;13241;51.208;4.432;2023-06-10T15:18:18;39.40;52.50
25300;DHT22;13241;51.208;4.432;2023-06-10T15:20:45;40.10;52.70
25300;DHT22;13241;51.208;4.432;2023-06-10T15:23:12;40.10;52.10
25300;DHT22;13241;51.208;4.432;2023-06-10T15:25:39;40.60;52.90
25300;DHT22;13241;51.208;4.432;2023-06-10T15:28:07;41.10;52.40
25300;DHT22;13241;51.208;4.432;2023-06-10T15:30:34;41.50;50.90
25300;DHT22;13241;51.208;4.432;2023-06-10T15:33:03;41.50;50.90
25300;DHT22;13241;51.208;4.432;2023-06-10T15:35:30;41.50;51.40
25300;DHT22;13241;51.208;4.432;2023-06-10T15:37:58;41.70;50.70
25300;DHT22;13241;51.208;4.432;2023-06-10T15:40:25;40.60;50.60
25300;DHT22;13241;51.208;4.432;2023-06-10T15:42:53;39.80;51.10
25300;DHT22;13241;51.208;4.432;2023-06-10T15:45:20;39.70;51.50
25300;DHT22;13241;51.208;4.432;2023-06-10T15:47:47;39.70;50.50
25300;DHT22;13241;51.208;4.432;2023-06-10T15:50:14;38.40;50.50
25300;DHT22;13241;51.208;4.432;2023-06-10T15:52:40;37.90;52.10
25300;DHT22;13241;51.208;4.432;2023-06-10T15:55:08;37.50;52.60
25300;DHT22;13241;51.208;4.432;2023-06-10T15:57:35;37.20;52.90
25300;DHT22;13241;51.208;4.432;2023-06-10T16:00:02;37.90;52.70
25300;DHT22;13241;51.208;4.432;2023-06-10T16:02:30;39.00;51.40
25300;DHT22;13241;51.208;4.432;2023-06-10T16:04:59;40.20;50.80